sensor_id;sensor_type;location;lat;lon;timestamp;P1;durP1;ratioP1;P2;durP2;ratioP2
37645;SDS011;23489;49.600;6.138;2023-10-08T07:05:46;11.40;;;6.75;;
37645;SDS011;23489;49.600;6.138;2023-10-08T07:08:30;10.90;;;6.60;;
37645;SDS011;23489;49.600;6.138;2023-10-08T07:10:57;9.93;;;6.97;;
37645;SDS011;23489;49.600;6.138;2023-10-08T07:13:26;8.77;;;5.88;;
37645;SDS011;23489;49.600;6.138;2023-10-08T07:15:54;9.95;;;5.60;;
37645;SDS011;23489;49.600;6.138;2023-10-08T07:18:20;7.80;;;5.82;;
37645;SDS011;23489;49.600;6.138;2023-10-08T08:18:01;8.77;;;4.93;;
37645;SDS011;23489;49.600;6.138;2023-10-08T08:20:30;7.95;;;5.22;;
37645;SDS011;23489;49.600;6.138;2023-10-08T08:23:09;7.07;;;5.40;;
37645;SDS011;23489;49.600;6.138;2023-10-08T09:50:04;7.75;;;4.70;;
37645;SDS011;23489;49.600;6.138;2023-10-08T10:12:25;7.80;;;4.60;;
37645;SDS011;23489;49.600;6.138;2023-10-08T10:22:33;7.50;;;4.40;;
37645;SDS011;23489;49.600;6.138;2023-10-08T10:24:59;9.98;;;4.70;;
37645;SDS011;23489;49.600;6.138;2023-10-08T22:03:44;6.38;;;4.35;;
37645;SDS011;23489;49.600;6.138;2023-10-08T22:06:11;9.50;;;6.20;;
37645;SDS011;23489;49.600;6.138;2023-10-08T22:08:37;10.25;;;6.20;;
37645;SDS011;23489;49.600;6.138;2023-10-08T22:11:03;10.70;;;5.73;;
37645;SDS011;23489;49.600;6.138;2023-10-08T22:13:32;11.30;;;6.35;;
37645;SDS011;23489;49.600;6.138;2023-10-08T22:15:58;10.48;;;5.78;;
37645;SDS011;23489;49.600;6.138;2023-10-08T22:18:39;11.17;;;6.10;;
37645;SDS011;23489;49.600;6.138;2023-10-08T22:21:09;11.45;;;6.25;;
37645;SDS011;23489;49.600;6.138;2023-10-08T22:23:38;8.85;;;5.97;;
37645;SDS011;23489;49.600;6.138;2023-10-08T22:26:08;9.80;;;6.40;;
37645;SDS011;23489;49.600;6.138;2023-10-08T22:28:39;10.98;;;6.25;;
37645;SDS011;23489;49.600;6.138;2023-10-08T22:31:09;11.80;;;6.18;;
37645;SDS011;23489;49.600;6.138;2023-10-08T22:33:37;11.18;;;6.05;;
37645;SDS011;23489;49.600;6.138;2023-10-08T22:36:11;9.23;;;5.75;;
37645;SDS011;23489;49.600;6.138;2023-10-08T22:38:49;10.45;;;6.30;;
37645;SDS011;23489;49.600;6.138;2023-10-08T22:41:15;7.32;;;5.60;;
37645;SDS011;23489;49.600;6.138;2023-10-08T22:43:40;9.07;;;6.00;;
37645;SDS011;23489;49.600;6.138;2023-10-08T22:46:09;9.13;;;5.88;;
37645;SDS011;23489;49.600;6.138;2023-10-08T22:48:36;9.95;;;5.55;;
37645;SDS011;23489;49.600;6.138;2023-10-08T22:51:11;7.97;;;5.65;;
37645;SDS011;23489;49.600;6.138;2023-10-08T22:53:53;8.87;;;6.27;;
37645;SDS011;23489;49.600;6.138;2023-10-08T22:56:20;9.88;;;5.90;;
37645;SDS011;23489;49.600;6.138;2023-10-08T22:58:49;9.23;;;6.20;;
37645;SDS011;23489;49.600;6.138;2023-10-08T23:01:16;8.97;;;6.27;;
37645;SDS011;23489;49.600;6.138;2023-10-08T23:03:44;9.93;;;6.30;;
37645;SDS011;23489;49.600;6.138;2023-10-08T23:06:15;9.30;;;6.25;;
37645;SDS011;23489;49.600;6.138;2023-10-08T23:08:44;9.70;;;5.88;;
37645;SDS011;23489;49.600;6.138;2023-10-08T23:11:11;11.10;;;6.60;;
37645;SDS011;23489;49.600;6.138;2023-10-08T23:13:40;10.17;;;5.83;;
37645;SDS011;23489;49.600;6.138;2023-10-08T23:16:11;12.87;;;6.40;;
37645;SDS011;23489;49.600;6.138;2023-10-08T23:18:41;11.15;;;5.68;;
37645;SDS011;23489;49.600;6.138;2023-10-08T23:21:07;9.25;;;6.25;;
37645;SDS011;23489;49.600;6.138;2023-10-08T23:23:36;8.50;;;6.13;;
37645;SDS011;23489;49.600;6.138;2023-10-08T23:26:06;11.65;;;6.45;;
37645;SDS011;23489;49.600;6.138;2023-10-08T23:28:32;10.60;;;6.28;;
37645;SDS011;23489;49.600;6.138;2023-10-08T23:30:59;9.27;;;6.10;;
37645;SDS011;23489;49.600;6.138;2023-10-08T23:33:27;10.05;;;6.00;;
37645;SDS011;23489;49.600;6.138;2023-10-08T23:36:08;8.23;;;6.03;;
37645;SDS011;23489;49.600;6.138;2023-10-08T23:38:39;9.65;;;5.85;;
37645;SDS011;23489;49.600;6.138;2023-10-08T23:41:07;11.52;;;6.65;;
37645;SDS011;23489;49.600;6.138;2023-10-08T23:43:56;10.48;;;6.20;;
37645;SDS011;23489;49.600;6.138;2023-10-08T23:46:26;9.90;;;6.13;;
37645;SDS011;23489;49.600;6.138;2023-10-08T23:49:02;9.80;;;5.90;;
37645;SDS011;23489;49.600;6.138;2023-10-08T23:51:41;9.18;;;5.78;;
37645;SDS011;23489;49.600;6.138;2023-10-08T23:54:11;10.20;;;6.30;;
37645;SDS011;23489;49.600;6.138;2023-10-08T23:57:00;8.68;;;5.75;;
37645;SDS011;23489;49.600;6.138;2023-10-08T23:59:29;10.48;;;6.45;;
